Gilbertville, Iowa
Current Conditions -  °F | °C
As of 3:54 AM on Friday 31 Oct 2014 (Local Time) from KALO Reporting Station
Clear Clear  
Wind Chill: 17°   Ceiling: Unl
Heat Index: 31°   Visibility: 10mi
Dew Point: 14°   Wind: 24mph
Humidity: 50%   Direction: 340°NNW
Pressure: 30.33"   Gusts: 32mph
Location:  42.42°N, 92.21°W
Report Text: KALO 310854Z 34021G28KT 10SM CLR M01/M10 A3033 RMK AO2 PK WND 34033/0825 SLP277 T10061100 53034
Loading
Personal Weather Stations






























Interactive Weather Map
Tropical Storm Tracking
New forecast layout! Learn more

10-Day Weather Forecast

Advertisements
Track Severe Weather on mobile